Time;durP1;ratioP1;P1;durP2;ratioP2;P2;SDS_P1;SDS_P2;PMS_P1;PMS_P2;Temp;Humidity;BMP_temperature;BMP_pressure;BME280_temperature;BME280_humidity;BME280_pressure;Samples;Min_cycle;Max_cycle;Signal;HPM_P1;HPM_P2
2022/05/05 00:01:03;;;;;;;;;;;;;;;21.96;27.45;98092.13;5108806;28;974;-74
2022/05/05 00:03:29;;;;;;;;;;;;;;;21.79;27.46;98100.66;5075986;28;1906;-73
2022/05/05 00:05:54;;;;;;;;;;;;;;;21.51;27.75;98095.72;5056517;28;950;-73
2022/05/05 00:08:20;;;;;;;;;;;;;;;21.36;28.08;98094.47;5075477;28;934;-74
2022/05/05 00:16:13;;;;;;;;;;;;;;;21.82;27.81;98105.44;5074327;28;1113;-73
2022/05/05 00:18:38;;;;;;;;;;;;;;;21.83;27.72;98104.19;5074848;28;1240;-74
2022/05/05 00:21:04;;;;;;;;;;;;;;;21.51;27.82;98107.84;5074882;28;1221;-73
2022/05/05 00:23:29;;;;;;;;;;;;;;;21.21;28.21;98106.09;5075034;28;1910;-73
2022/05/05 00:25:55;;;;;;;;;;;;;;;21.37;27.78;98113.84;5074918;28;840;-73
2022/05/05 00:28:21;;;;;;;;;;;;;;;21.59;28.05;98105.63;5075196;28;924;-73
2022/05/05 00:30:46;;;;;;;;;;;;;;;21.84;27.63;98102.16;5075207;28;971;-74
2022/05/05 00:33:12;;;;;;;;;;;;;;;21.96;27.29;98103.47;5075148;28;1277;-74
2022/05/05 00:35:37;;;;;;;;;;;;;;;21.66;27.31;98101.78;5075086;28;1123;-74
2022/05/05 00:38:03;;;;;;;;;;;;;;;21.52;27.67;98103.75;5075295;28;942;-73
2022/05/05 00:40:29;;;;;;;;;;;;;;;21.25;27.86;98106.81;5075375;28;979;-73
2022/05/05 00:42:54;;;;;;;;;;;;;;;21.27;28.80;98109.19;5075188;28;1982;-73
2022/05/05 00:45:20;;;;;;;;;;;;;;;21.70;27.71;98114.63;5075095;28;974;-73
2022/05/05 00:47:45;;;;;;;;;;;;;;;21.81;27.49;98108.69;5074906;28;970;-73
2022/05/05 00:50:11;;;;;;;;;;;;;;;21.46;27.78;98104.75;5073794;28;915;-73
2022/05/05 00:52:36;;;;;;;;;;;;;;;21.30;28.30;98109.16;5074762;28;989;-73
2022/05/05 00:55:02;;;;;;;;;;;;;;;21.10;28.34;98114.03;5075045;28;922;-73
2022/05/05 00:57:27;;;;;;;;;;;;;;;21.35;28.75;98115.50;5073801;28;973;-74
2022/05/05 00:59:53;;;;;;;;;;;;;;;21.46;28.15;98114.03;5074602;28;889;-73
2022/05/05 01:02:18;;;;;;;;;;;;;;;21.79;27.73;98111.19;5073684;28;1902;-73
2022/05/05 01:04:46;;;;;;;;;;;;;;;21.66;27.61;98111.13;5073530;28;922;-73
2022/05/05 01:07:13;;;;;;;;;;;;;;;21.39;27.93;98116.22;5074607;28;940;-73
2022/05/05 01:09:41;;;;;;;;;;;;;;;21.28;28.32;98114.41;5072125;28;1115;-73
2022/05/05 01:12:07;;;;;;;;;;;;;;;21.03;28.73;98111.34;5074694;28;894;-73
2022/05/05 01:14:33;;;;;;;;;;;;;;;21.74;28.04;98118.19;5074703;28;942;-73
2022/05/05 01:16:58;;;;;;;;;;;;;;;21.76;27.64;98112.88;5073216;28;898;-73
2022/05/05 01:19:24;;;;;;;;;;;;;;;21.97;27.43;98116.41;5074798;28;929;-73
2022/05/05 01:21:58;;;;;;;;;;;;;;;21.56;27.78;98112.19;5055246;28;1977;-73
2022/05/05 01:29:52;;;;;;;;;;;;;;;21.31;28.76;98112.78;5078379;28;951;-73
2022/05/05 01:32:17;;;;;;;;;;;;;;;21.64;28.30;98116.41;5077621;28;929;-73
2022/05/05 01:34:43;;;;;;;;;;;;;;;21.78;27.82;98118.88;5078736;28;1027;-74
2022/05/05 01:37:08;;;;;;;;;;;;;;;21.75;27.72;98111.25;5078675;28;920;-73
2022/05/05 01:39:34;;;;;;;;;;;;;;;21.35;28.10;98121.16;5078923;28;967;-73
2022/05/05 01:41:59;;;;;;;;;;;;;;;21.31;28.15;98119.22;5078416;28;1909;-73
2022/05/05 01:44:25;;;;;;;;;;;;;;;21.40;28.66;98123.47;5078336;28;904;-73
2022/05/05 01:46:52;;;;;;;;;;;;;;;21.78;28.10;98130.22;5077972;28;854;-73
2022/05/05 01:49:17;;;;;;;;;;;;;;;21.89;27.96;98124.28;5077218;28;1122;-74
2022/05/05 01:51:43;;;;;;;;;;;;;;;21.79;27.69;98123.31;5078249;28;1084;-74
2022/05/05 01:54:08;;;;;;;;;;;;;;;21.59;27.87;98122.59;5076883;28;904;-73
2022/05/05 01:56:34;;;;;;;;;;;;;;;21.41;28.13;98125.09;5077128;28;1316;-73
2022/05/05 01:58:59;;;;;;;;;;;;;;;21.24;28.50;98124.22;5059218;28;1023;-73
2022/05/05 02:01:25;;;;;;;;;;;;;;;21.42;28.81;98123.84;5078003;28;1030;-73
2022/05/05 02:03:50;;;;;;;;;;;;;;;21.75;27.95;98139.59;5077747;28;1961;-73
2022/05/05 02:06:16;;;;;;;;;;;;;;;21.92;27.62;98143.22;5078069;28;939;-74
2022/05/05 02:08:41;;;;;;;;;;;;;;;21.59;27.86;98142.41;5078003;28;913;-74
2022/05/05 02:11:07;;;;;;;;;;;;;;;21.51;27.84;98163.66;5078269;28;917;-74
2022/05/05 02:13:32;;;;;;;;;;;;;;;21.46;28.06;98144.38;5077870;28;861;-74
2022/05/05 02:15:58;;;;;;;;;;;;;;;21.48;28.51;98158.88;5077713;28;933;-74
2022/05/05 02:18:23;;;;;;;;;;;;;;;21.83;27.75;98146.69;5077619;28;960;-74
2022/05/05 02:20:49;;;;;;;;;;;;;;;21.81;28.03;98148.34;5077879;28;897;-74
2022/05/05 02:23:15;;;;;;;;;;;;;;;21.91;27.42;98150.13;5077218;28;1913;-74
2022/05/05 02:25:41;;;;;;;;;;;;;;;21.52;28.01;98148.28;5077599;28;968;-74
2022/05/05 02:28:06;;;;;;;;;;;;;;;21.43;28.18;98148.06;5077457;28;1121;-74
2022/05/05 02:30:32;;;;;;;;;;;;;;;21.30;28.34;98154.44;5077616;28;885;-73
2022/05/05 02:32:57;;;;;;;;;;;;;;;21.14;28.60;98150.72;5077328;28;1125;-73
2022/05/05 02:35:23;;;;;;;;;;;;;;;21.48;28.54;98150.38;5077598;28;967;-73
2022/05/05 02:40:32;;;;;;;;;;;;;;;21.87;27.94;98157.94;5076779;28;963;-73
2022/05/05 02:42:58;;;;;;;;;;;;;;;22.00;27.39;98155.97;5077410;28;1902;-73
2022/05/05 02:45:23;;;;;;;;;;;;;;;21.83;27.67;98152.34;5077154;28;1083;-74
2022/05/05 02:47:49;;;;;;;;;;;;;;;21.47;28.37;98158.09;5076095;28;1093;-74
2022/05/05 02:50:15;;;;;;;;;;;;;;;21.40;28.24;98168.75;5077178;28;903;-73
2022/05/05 02:52:40;;;;;;;;;;;;;;;21.26;28.58;98173.50;5076016;28;877;-73
2022/05/05 02:55:06;;;;;;;;;;;;;;;21.39;28.54;98170.00;5077072;28;907;-74
2022/05/05 02:57:32;;;;;;;;;;;;;;;21.76;27.78;98168.72;5074376;28;999;-73
2022/05/05 02:59:58;;;;;;;;;;;;;;;22.04;27.46;98172.88;5037608;28;978;-73
2022/05/05 03:02:23;;;;;;;;;;;;;;;21.83;27.36;98186.34;5054690;28;1902;-73
2022/05/05 03:04:49;;;;;;;;;;;;;;;21.54;27.96;98179.75;5054063;28;1065;-73
2022/05/05 03:07:15;;;;;;;;;;;;;;;21.20;28.25;98189.41;5054022;28;1141;-73
2022/05/05 03:09:41;;;;;;;;;;;;;;;21.33;28.66;98181.84;5054282;28;1097;-73
2022/05/05 03:12:07;;;;;;;;;;;;;;;21.67;27.91;98183.50;5054143;28;953;-73
2022/05/05 03:14:32;;;;;;;;;;;;;;;21.92;27.46;98190.59;5020973;28;977;-74
2022/05/05 03:16:58;;;;;;;;;;;;;;;21.94;27.27;98196.59;5054071;28;926;-73
2022/05/05 03:19:23;;;;;;;;;;;;;;;21.53;28.09;98190.28;5037501;28;910;-74
2022/05/05 03:21:49;;;;;;;;;;;;;;;21.39;27.98;98195.47;5053791;28;1891;-74
2022/05/05 03:24:15;;;;;;;;;;;;;;;21.22;28.24;98198.25;5054291;28;1051;-74
2022/05/05 03:26:40;;;;;;;;;;;;;;;21.45;28.85;98188.88;5053882;28;1091;-74
2022/05/05 03:29:06;;;;;;;;;;;;;;;21.65;28.16;98197.28;5053776;28;1059;-74
2022/05/05 03:31:32;;;;;;;;;;;;;;;21.91;27.79;98203.94;5070506;28;1159;-74
2022/05/05 03:33:57;;;;;;;;;;;;;;;21.64;28.02;98195.69;5076279;28;1113;-73
2022/05/05 03:36:23;;;;;;;;;;;;;;;21.33;28.60;98195.19;5074957;28;1059;-74
2022/05/05 03:38:49;;;;;;;;;;;;;;;21.39;28.49;98189.81;5076390;28;985;-74
2022/05/05 03:41:14;;;;;;;;;;;;;;;21.20;28.59;98192.22;5076461;28;921;-74
2022/05/05 03:43:40;;;;;;;;;;;;;;;21.77;28.57;98205.09;5075964;28;1921;-74
2022/05/05 03:46:05;;;;;;;;;;;;;;;21.88;28.23;98201.22;5057122;28;1001;-74
2022/05/05 03:48:31;;;;;;;;;;;;;;;21.97;27.69;98204.22;5076200;28;999;-74
2022/05/05 03:50:56;;;;;;;;;;;;;;;21.68;28.16;98206.94;5073703;28;1166;-74
2022/05/05 03:53:22;;;;;;;;;;;;;;;21.47;28.12;98211.06;5076342;28;960;-74
2022/05/05 03:55:47;;;;;;;;;;;;;;;21.39;28.38;98212.47;5075800;28;1099;-74
2022/05/05 03:58:13;;;;;;;;;;;;;;;21.41;28.86;98219.28;5074654;28;1141;-74
2022/05/05 04:00:38;;;;;;;;;;;;;;;21.79;28.03;98219.59;5075643;28;951;-73
2022/05/05 04:05:48;;;;;;;;;;;;;;;21.92;27.88;98216.88;5075412;28;959;-74
2022/05/05 04:08:14;;;;;;;;;;;;;;;21.49;28.16;98222.75;5074401;28;1099;-73
2022/05/05 04:10:39;;;;;;;;;;;;;;;21.33;28.64;98224.28;5052525;28;1187;-74
2022/05/05 04:13:04;;;;;;;;;;;;;;;21.41;28.36;98227.78;5053122;28;1005;-74
2022/05/05 04:15:30;;;;;;;;;;;;;;;21.39;28.89;98220.94;5053157;28;992;-73
2022/05/05 04:17:55;;;;;;;;;;;;;;;21.56;28.50;98228.25;5052558;28;1100;-73
2022/05/05 04:20:21;;;;;;;;;;;;;;;21.65;28.37;98231.28;5052929;28;949;-75
2022/05/05 04:22:46;;;;;;;;;;;;;;;21.68;28.42;98226.78;5052589;28;1979;-73
2022/05/05 04:25:16;;;;;;;;;;;;;;;21.43;28.56;98228.13;5052706;28;1059;-74
2022/05/05 04:27:41;;;;;;;;;;;;;;;21.08;28.88;98238.16;5052722;28;948;-74
2022/05/05 04:30:08;;;;;;;;;;;;;;;21.24;28.44;98235.41;5052759;28;1087;-74
2022/05/05 04:32:34;;;;;;;;;;;;;;;21.63;28.57;98239.41;5036052;28;951;-74
2022/05/05 04:34:59;;;;;;;;;;;;;;;21.84;28.02;98236.09;5036000;28;1119;-74
2022/05/05 04:37:24;;;;;;;;;;;;;;;21.77;28.24;98239.09;5052603;28;1036;-73
2022/05/05 04:39:50;;;;;;;;;;;;;;;21.59;28.37;98250.03;5052663;28;956;-74
2022/05/05 04:42:15;;;;;;;;;;;;;;;21.38;28.87;98251.28;5079371;28;1913;-74
2022/05/05 04:44:41;;;;;;;;;;;;;;;21.36;28.79;98258.66;5075352;28;952;-73
2022/05/05 04:47:06;;;;;;;;;;;;;;;21.40;28.87;98260.16;5056013;28;1114;-73
2022/05/05 04:49:32;;;;;;;;;;;;;;;21.76;28.27;98259.34;5075005;28;978;-74
2022/05/05 04:51:57;;;;;;;;;;;;;;;21.78;28.50;98263.34;5074799;28;1109;-73
2022/05/05 04:54:23;;;;;;;;;;;;;;;21.63;28.13;98266.94;5074732;28;1224;-74
2022/05/05 04:56:48;;;;;;;;;;;;;;;21.58;28.53;98274.72;5071856;28;1295;-74
2022/05/05 04:59:14;;;;;;;;;;;;;;;21.36;28.76;98273.59;5071697;28;1295;-74
2022/05/05 05:01:39;;;;;;;;;;;;;;;21.27;28.69;98267.69;5071613;28;1992;-74
2022/05/05 05:04:06;;;;;;;;;;;;;;;21.51;29.11;98279.75;5071822;28;1315;-74
2022/05/05 05:06:32;;;;;;;;;;;;;;;21.70;28.63;98278.88;5068845;28;1315;-73
2022/05/05 05:08:57;;;;;;;;;;;;;;;21.87;28.34;98285.41;5071883;28;1237;-74
2022/05/05 05:11:23;;;;;;;;;;;;;;;21.66;28.23;98283.03;5071462;28;1221;-74
2022/05/05 05:13:48;;;;;;;;;;;;;;;21.39;28.59;98291.72;5071983;28;1708;-74
2022/05/05 05:16:14;;;;;;;;;;;;;;;21.27;28.93;98285.47;5071925;28;1262;-74
2022/05/05 05:18:39;;;;;;;;;;;;;;;21.17;28.95;98292.13;5071857;28;1017;-74
2022/05/05 05:21:05;;;;;;;;;;;;;;;21.63;28.56;98281.91;5072295;28;971;-73
2022/05/05 05:23:30;;;;;;;;;;;;;;;21.84;28.10;98291.94;5071697;28;1922;-74
2022/05/05 05:25:57;;;;;;;;;;;;;;;21.84;28.25;98294.78;5072509;28;1042;-74
2022/05/05 05:28:22;;;;;;;;;;;;;;;21.50;28.44;98293.09;5055596;28;1264;-73
2022/05/05 05:30:48;;;;;;;;;;;;;;;21.39;28.35;98297.38;5074628;28;1002;-74
2022/05/05 05:33:13;;;;;;;;;;;;;;;21.25;28.85;98293.59;5074871;28;854;-74
2022/05/05 05:35:39;;;;;;;;;;;;;;;21.24;28.90;98297.66;5074531;28;1045;-73
2022/05/05 05:38:04;;;;;;;;;;;;;;;21.45;28.65;98304.13;5074838;28;1145;-74
2022/05/05 05:40:30;;;;;;;;;;;;;;;21.82;28.04;98305.75;5074790;28;861;-75
2022/05/05 05:42:55;;;;;;;;;;;;;;;21.75;27.93;98303.84;5074668;28;1980;-74
2022/05/05 05:45:21;;;;;;;;;;;;;;;21.58;28.30;98310.72;5074677;28;962;-74
2022/05/05 05:47:46;;;;;;;;;;;;;;;21.29;28.52;98311.28;5074648;28;853;-73
2022/05/05 05:50:12;;;;;;;;;;;;;;;21.12;28.92;98309.63;5074784;28;996;-73
2022/05/05 05:52:37;;;;;;;;;;;;;;;21.43;29.05;98315.09;5074579;28;1269;-73
2022/05/05 05:55:03;;;;;;;;;;;;;;;21.70;28.27;98312.09;5074568;28;994;-73
2022/05/05 05:57:28;;;;;;;;;;;;;;;21.82;27.98;98315.06;5074357;28;1248;-73
2022/05/05 05:59:54;;;;;;;;;;;;;;;21.60;28.20;98325.22;5074438;28;956;-74
2022/05/05 06:05:03;;;;;;;;;;;;;;;21.21;29.15;98321.16;5074290;28;1004;-74
2022/05/05 06:07:29;;;;;;;;;;;;;;;21.10;29.30;98319.78;5074684;28;972;-74
2022/05/05 06:09:54;;;;;;;;;;;;;;;21.59;28.58;98323.63;5074485;28;894;-74
2022/05/05 06:12:20;;;;;;;;;;;;;;;21.74;28.49;98330.59;5074087;28;1275;-74
2022/05/05 06:14:45;;;;;;;;;;;;;;;21.84;28.19;98328.75;5076356;28;1068;-73
2022/05/05 06:17:11;;;;;;;;;;;;;;;21.61;28.19;98332.53;5078087;28;849;-73
2022/05/05 06:19:36;;;;;;;;;;;;;;;21.32;28.63;98338.75;5078049;28;1148;-73
2022/05/05 06:22:02;;;;;;;;;;;;;;;21.27;28.73;98342.06;5077658;28;1909;-73
2022/05/05 06:24:28;;;;;;;;;;;;;;;21.24;29.04;98348.59;5077394;28;1232;-74
2022/05/05 06:26:53;;;;;;;;;;;;;;;21.35;28.81;98353.25;5077584;28;1251;-74
2022/05/05 06:29:19;;;;;;;;;;;;;;;21.61;28.43;98343.84;5077623;28;1212;-73
2022/05/05 06:31:44;;;;;;;;;;;;;;;21.84;27.96;98352.22;5077267;28;1185;-73
2022/05/05 06:34:10;;;;;;;;;;;;;;;21.62;28.16;98351.09;5077563;28;1380;-75
2022/05/05 06:36:36;;;;;;;;;;;;;;;21.42;28.73;98358.78;5077494;28;1263;-73
2022/05/05 06:39:01;;;;;;;;;;;;;;;21.30;28.59;98352.56;5077542;28;1255;-74
2022/05/05 06:41:28;;;;;;;;;;;;;;;21.16;28.96;98347.13;5077701;28;995;-74
2022/05/05 06:43:54;;;;;;;;;;;;;;;21.51;28.67;98351.31;5076913;28;1976;-74
2022/05/05 06:46:19;;;;;;;;;;;;;;;21.84;27.95;98349.38;5115426;28;1005;-74
2022/05/05 06:48:45;;;;;;;;;;;;;;;21.75;28.08;98354.03;5094955;28;975;-74
2022/05/05 06:51:11;;;;;;;;;;;;;;;21.51;28.33;98356.19;5095181;28;1017;-74
2022/05/05 06:53:36;;;;;;;;;;;;;;;21.35;28.64;98370.25;5095158;28;882;-74
2022/05/05 06:56:02;;;;;;;;;;;;;;;21.29;28.55;98372.75;5095127;28;1068;-74
2022/05/05 06:58:27;;;;;;;;;;;;;;;21.33;28.76;98373.50;5095049;28;1110;-74
2022/05/05 07:03:36;;;;;;;;;;;;;;;21.73;28.01;98379.19;5094730;28;1980;-74
2022/05/05 07:06:01;;;;;;;;;;;;;;;21.62;27.89;98382.25;5094829;28;981;-74
2022/05/05 07:08:27;;;;;;;;;;;;;;;21.53;28.05;98376.34;5094831;28;955;-74
2022/05/05 07:10:53;;;;;;;;;;;;;;;21.23;28.68;98380.94;5094693;28;977;-74
2022/05/05 07:13:22;;;;;;;;;;;;;;;21.26;28.62;98382.91;5094432;28;1069;-74
2022/05/05 07:15:47;;;;;;;;;;;;;;;21.65;28.24;98375.69;5091189;28;1418;-73
2022/05/05 07:18:13;;;;;;;;;;;;;;;21.70;28.10;98386.50;5074101;28;1190;-74
2022/05/05 07:20:38;;;;;;;;;;;;;;;21.77;27.70;98377.88;5076057;28;925;-74
2022/05/05 07:23:06;;;;;;;;;;;;;;;21.56;28.28;98381.16;5077010;28;1983;-74
2022/05/05 07:25:32;;;;;;;;;;;;;;;21.40;28.39;98378.22;5074410;28;949;-74
2022/05/05 07:27:57;;;;;;;;;;;;;;;21.31;28.25;98392.97;5076364;28;959;-74
2022/05/05 07:30:23;;;;;;;;;;;;;;;21.29;28.37;98390.53;5076918;28;1001;-73
2022/05/05 07:32:49;;;;;;;;;;;;;;;21.73;27.91;98393.34;5076805;28;917;-73
2022/05/05 07:35:14;;;;;;;;;;;;;;;21.77;27.85;98392.03;5073970;28;1082;-74
2022/05/05 07:37:40;;;;;;;;;;;;;;;21.47;27.92;98389.44;5076233;28;1236;-74
2022/05/05 07:40:06;;;;;;;;;;;;;;;21.48;28.08;98397.47;5076040;28;1245;-73
2022/05/05 07:42:31;;;;;;;;;;;;;;;21.47;27.98;98401.56;5076280;28;1983;-73
2022/05/05 07:44:57;;;;;;;;;;;;;;;21.57;28.14;98406.19;5075936;28;1177;-74
2022/05/05 07:47:22;;;;;;;;;;;;;;;21.70;27.95;98403.50;5074875;28;1794;-74
2022/05/05 07:49:48;;;;;;;;;;;;;;;21.80;27.45;98408.16;5076349;28;1005;-74
2022/05/05 07:52:13;;;;;;;;;;;;;;;21.51;27.86;98412.81;5076331;28;997;-74
2022/05/05 07:54:39;;;;;;;;;;;;;;;21.33;28.33;98416.78;5075955;28;997;-74
2022/05/05 07:57:05;;;;;;;;;;;;;;;21.16;28.54;98415.06;5076365;28;903;-74
2022/05/05 07:59:30;;;;;;;;;;;;;;;21.73;27.66;98402.66;5073850;28;866;-74
2022/05/05 08:01:57;;;;;;;;;;;;;;;21.88;27.36;98408.03;5075946;28;1975;-74
2022/05/05 08:04:22;;;;;;;;;;;;;;;21.56;27.75;98409.47;5075916;28;933;-73
2022/05/05 08:06:48;;;;;;;;;;;;;;;21.49;27.75;98403.94;5075875;28;1454;-74
2022/05/05 08:09:13;;;;;;;;;;;;;;;21.28;28.07;98411.56;5075963;28;906;-74
2022/05/05 08:11:39;;;;;;;;;;;;;;;21.31;27.86;98410.75;5076064;28;831;-74
2022/05/05 08:14:05;;;;;;;;;;;;;;;21.49;28.00;98398.28;5107484;28;978;-74
2022/05/05 08:16:30;;;;;;;;;;;;;;;21.87;27.26;98406.44;5090232;28;1107;-74
2022/05/05 08:18:57;;;;;;;;;;;;;;;22.01;27.03;98412.56;5075620;28;916;-73
2022/05/05 08:21:22;;;;;;;;;;;;;;;21.51;27.96;98407.16;5108407;28;943;-74
2022/05/05 08:23:48;;;;;;;;;;;;;;;21.54;27.60;98401.41;5075543;28;1902;-74
2022/05/05 08:28:57;;;;;;;;;;;;;;;21.49;28.03;98404.72;5075516;28;1176;-73
2022/05/05 08:31:23;;;;;;;;;;;;;;;21.78;27.43;98396.47;5075574;28;873;-74
2022/05/05 08:33:49;;;;;;;;;;;;;;;21.94;27.04;98389.25;5075680;28;1054;-74
2022/05/05 08:36:14;;;;;;;;;;;;;;;21.48;27.73;98405.97;5075165;28;1112;-74
2022/05/05 08:38:40;;;;;;;;;;;;;;;21.38;28.00;98411.84;5074948;28;950;-74
2022/05/05 08:41:08;;;;;;;;;;;;;;;21.33;28.27;98402.63;5075504;28;974;-74
2022/05/05 08:43:33;;;;;;;;;;;;;;;21.35;27.88;98415.53;5113108;28;1909;-73
2022/05/05 08:45:59;;;;;;;;;;;;;;;21.31;28.02;98419.25;5113383;28;886;-74
2022/05/05 08:48:24;;;;;;;;;;;;;;;21.78;27.49;98410.63;5112941;28;1027;-74
2022/05/05 08:50:51;;;;;;;;;;;;;;;21.71;27.51;98407.97;5113218;28;1029;-74
2022/05/05 08:53:17;;;;;;;;;;;;;;;21.57;27.50;98411.06;5113255;28;957;-74
2022/05/05 08:55:43;;;;;;;;;;;;;;;21.43;27.86;98411.34;5072485;28;1007;-74
2022/05/05 08:58:08;;;;;;;;;;;;;;;21.39;28.21;98410.59;5072555;28;1246;-73
2022/05/05 09:00:34;;;;;;;;;;;;;;;21.65;27.68;98412.50;5072631;28;1062;-74
2022/05/05 09:03:00;;;;;;;;;;;;;;;21.77;27.51;98377.88;5072507;28;1977;-74
2022/05/05 09:05:43;;;;;;;;;;;;;;;21.64;27.44;98410.91;5072422;28;1168;-74
2022/05/05 09:08:27;;;;;;;;;;;;;;;21.49;27.88;98401.09;5072467;28;1040;-74
2022/05/05 09:10:54;;;;;;;;;;;;;;;21.33;28.02;98413.94;5072876;28;966;-74
2022/05/05 09:13:22;;;;;;;;;;;;;;;21.27;28.03;98415.66;5032302;28;1033;-74
2022/05/05 09:15:48;;;;;;;;;;;;;;;21.48;27.86;98408.81;4993090;28;1044;-74
2022/05/05 09:18:13;;;;;;;;;;;;;;;21.87;27.19;98409.25;4993060;28;1035;-73
2022/05/05 09:20:39;;;;;;;;;;;;;;;21.89;26.98;98415.28;4993103;28;937;-74
2022/05/05 09:23:05;;;;;;;;;;;;;;;21.41;27.90;98413.81;4992764;28;2003;-74
2022/05/05 09:25:44;;;;;;;;;;;;;;;21.35;27.99;98421.19;4976552;28;963;-74
2022/05/05 09:28:18;;;;;;;;;;;;;;;21.29;28.23;98403.88;5016067;28;1088;-74
2022/05/05 09:30:44;;;;;;;;;;;;;;;21.35;28.38;98415.53;5015539;28;1095;-75
2022/05/05 09:33:10;;;;;;;;;;;;;;;21.66;27.56;98411.28;5032170;28;967;-75
2022/05/05 09:35:35;;;;;;;;;;;;;;;21.90;27.52;98406.31;5032084;28;994;-75
2022/05/05 09:38:01;;;;;;;;;;;;;;;21.55;27.82;98402.19;5015857;28;1025;-75
2022/05/05 09:40:28;;;;;;;;;;;;;;;21.37;28.22;98418.75;5032211;28;1005;-75
2022/05/05 09:42:55;;;;;;;;;;;;;;;21.27;28.57;98407.16;5032189;28;1977;-75
2022/05/05 09:45:21;;;;;;;;;;;;;;;21.24;28.32;98419.34;5032110;28;1053;-75
2022/05/05 09:47:47;;;;;;;;;;;;;;;21.70;27.80;98419.69;5032132;28;1177;-75
2022/05/05 09:50:13;;;;;;;;;;;;;;;21.87;27.40;98417.75;5031790;28;1041;-75
2022/05/05 09:58:09;;;;;;;;;;;;;;;21.28;28.42;98422.91;5116754;28;1050;-75
2022/05/05 10:05:48;;;;;;;;;;;;;;;22.06;27.10;98419.75;5116396;28;920;-75
2022/05/05 10:08:34;;;;;;;;;;;;;;;21.55;27.91;98427.69;5116373;28;1044;-75
2022/05/05 10:11:00;;;;;;;;;;;;;;;21.55;27.75;98424.84;5116517;28;990;-75
2022/05/05 10:13:26;;;;;;;;;;;;;;;21.39;28.01;98428.38;5075542;28;1017;-75
2022/05/05 10:15:52;;;;;;;;;;;;;;;21.57;28.08;98428.06;5074907;28;2154;-75
2022/05/05 10:18:17;;;;;;;;;;;;;;;21.84;27.25;98414.53;5055391;28;1013;-75
2022/05/05 10:20:43;;;;;;;;;;;;;;;22.02;27.00;98421.84;5035228;28;1055;-75
2022/05/05 10:23:19;;;;;;;;;;;;;;;22.00;27.15;98418.66;4976173;28;1906;-74
2022/05/05 10:25:50;;;;;;;;;;;;;;;21.82;27.54;98419.06;4957083;28;1022;-75
2022/05/05 10:28:34;;;;;;;;;;;;;;;21.62;27.88;98424.72;4932651;29;1015;-75
2022/05/05 10:30:59;;;;;;;;;;;;;;;21.39;28.27;98427.59;4918670;29;1009;-75
2022/05/05 10:33:45;;;;;;;;;;;;;;;21.35;28.09;98421.19;4918901;29;998;-74
2022/05/05 10:36:25;;;;;;;;;;;;;;;21.40;27.98;98423.53;4918796;29;1386;-74
2022/05/05 10:38:51;;;;;;;;;;;;;;;21.39;28.28;98410.59;4918893;29;972;-75
2022/05/05 10:41:34;;;;;;;;;;;;;;;21.82;27.54;98417.03;4934420;29;892;-75
2022/05/05 10:44:18;;;;;;;;;;;;;;;21.74;27.45;98423.25;4924554;29;1914;-75
2022/05/05 10:46:56;;;;;;;;;;;;;;;21.56;27.68;98434.97;4937827;29;1073;-75
2022/05/05 10:49:30;;;;;;;;;;;;;;;21.40;28.08;98435.69;4937710;29;1031;-75
2022/05/05 10:52:08;;;;;;;;;;;;;;;21.40;28.05;98432.00;4937577;29;948;-75
2022/05/05 10:54:33;;;;;;;;;;;;;;;21.28;28.17;98439.88;4962961;28;1023;-74
2022/05/05 10:57:17;;;;;;;;;;;;;;;21.58;27.81;98426.81;5038530;28;880;-75
2022/05/05 11:00:01;;;;;;;;;;;;;;;21.78;27.24;98438.97;5069390;28;1030;-74
2022/05/05 11:02:27;;;;;;;;;;;;;;;21.64;27.81;98429.94;5077184;28;1925;-75
2022/05/05 11:04:52;;;;;;;;;;;;;;;21.49;28.03;98443.56;5094640;28;1003;-74
2022/05/05 11:07:22;;;;;;;;;;;;;;;21.33;28.15;98435.78;5092091;28;1058;-74
2022/05/05 11:09:48;;;;;;;;;;;;;;;21.27;28.19;98443.94;5094527;28;1029;-75
2022/05/05 11:12:20;;;;;;;;;;;;;;;21.23;28.09;98448.06;5094860;28;1076;-74
2022/05/05 11:22:58;;;;;;;;;;;;;;;21.60;27.65;98444.16;5094328;28;1988;-75
2022/05/05 11:25:24;;;;;;;;;;;;;;;21.38;27.65;98451.47;5094580;28;993;-74
2022/05/05 11:27:54;;;;;;;;;;;;;;;21.37;27.85;98452.72;5094719;28;1084;-74
2022/05/05 11:30:19;;;;;;;;;;;;;;;21.28;28.31;98451.19;5094381;28;937;-75
2022/05/05 11:32:45;;;;;;;;;;;;;;;21.67;27.50;98452.53;5094304;28;943;-75
2022/05/05 11:35:11;;;;;;;;;;;;;;;21.87;27.08;98451.75;5057631;28;963;-74
2022/05/05 11:37:36;;;;;;;;;;;;;;;21.59;27.50;98459.56;5076533;28;830;-75
2022/05/05 11:40:02;;;;;;;;;;;;;;;21.42;27.96;98460.72;5081681;28;1093;-75
2022/05/05 11:42:28;;;;;;;;;;;;;;;21.38;27.80;98459.97;5076619;28;1969;-75
2022/05/05 11:44:54;;;;;;;;;;;;;;;21.28;27.84;98462.53;5076333;28;917;-75
2022/05/05 11:47:19;;;;;;;;;;;;;;;21.20;28.39;98460.28;5076753;28;912;-75
2022/05/05 11:49:48;;;;;;;;;;;;;;;21.16;28.33;98466.00;5076401;28;999;-75
2022/05/05 11:52:17;;;;;;;;;;;;;;;21.79;27.19;98451.09;5076441;28;941;-75
2022/05/05 11:54:45;;;;;;;;;;;;;;;21.81;27.13;98455.09;5076464;28;801;-75
2022/05/05 11:57:11;;;;;;;;;;;;;;;21.61;27.53;98467.66;5076334;28;1000;-75
2022/05/05 12:02:21;;;;;;;;;;;;;;;21.21;28.17;98473.19;5113879;28;1893;-75
2022/05/05 12:04:49;;;;;;;;;;;;;;;21.27;28.03;98477.13;5114231;28;1040;-74
2022/05/05 12:07:21;;;;;;;;;;;;;;;21.14;28.09;98462.81;5095460;28;1455;-75
2022/05/05 12:09:50;;;;;;;;;;;;;;;21.57;27.49;98476.19;5101798;28;1535;-75
2022/05/05 12:12:16;;;;;;;;;;;;;;;21.88;27.15;98467.50;5101289;28;1371;-75
2022/05/05 12:14:42;;;;;;;;;;;;;;;21.65;27.44;98468.34;5103676;28;1347;-75
2022/05/05 12:17:08;;;;;;;;;;;;;;;21.47;27.83;98474.38;5101938;28;1504;-75
2022/05/05 12:19:40;;;;;;;;;;;;;;;21.30;27.93;98448.78;5061854;28;1598;-75
2022/05/05 12:22:05;;;;;;;;;;;;;;;21.53;27.87;98466.97;5061285;28;1975;-75
2022/05/05 12:24:30;;;;;;;;;;;;;;;21.85;27.20;98461.47;5062052;28;1640;-75
2022/05/05 12:27:09;;;;;;;;;;;;;;;21.97;26.93;98479.06;5062600;28;1749;-74
2022/05/05 12:29:41;;;;;;;;;;;;;;;21.53;27.40;98464.13;5060461;28;1599;-75
2022/05/05 12:32:10;;;;;;;;;;;;;;;21.46;27.88;98469.94;5046800;28;1345;-75
2022/05/05 12:34:35;;;;;;;;;;;;;;;21.35;28.03;98460.81;5063636;28;1466;-75
2022/05/05 12:37:09;;;;;;;;;;;;;;;21.96;27.12;98454.78;5060870;28;1655;-75
2022/05/05 12:39:47;;;;;;;;;;;;;;;21.87;27.21;98463.09;5061448;28;1600;-75
2022/05/05 12:42:14;;;;;;;;;;;;;;;21.57;27.51;98470.53;5061166;28;1917;-75
2022/05/05 12:44:41;;;;;;;;;;;;;;;21.45;27.65;98471.16;5045011;28;1395;-75
2022/05/05 12:47:07;;;;;;;;;;;;;;;21.39;27.90;98468.03;5061090;28;1411;-74
2022/05/05 12:49:32;;;;;;;;;;;;;;;21.32;27.74;98468.97;5063180;28;1674;-75
2022/05/05 12:51:58;;;;;;;;;;;;;;;21.67;27.32;98472.38;5080435;28;1441;-75
2022/05/05 12:59:51;;;;;;;;;;;;;;;21.30;27.80;98465.78;5072620;28;988;-74
2022/05/05 13:02:17;;;;;;;;;;;;;;;21.37;27.60;98472.53;5072864;28;1974;-74
2022/05/05 13:04:43;;;;;;;;;;;;;;;21.25;27.98;98468.28;5070200;28;977;-75
2022/05/05 13:07:08;;;;;;;;;;;;;;;21.60;27.59;98472.47;5055012;28;933;-75
2022/05/05 13:09:34;;;;;;;;;;;;;;;21.75;27.18;98465.31;5055059;28;850;-75
2022/05/05 13:11:59;;;;;;;;;;;;;;;21.61;27.43;98468.44;5054884;28;1153;-75
2022/05/05 13:14:24;;;;;;;;;;;;;;;21.46;27.79;98467.09;5054980;28;953;-75
2022/05/05 13:16:50;;;;;;;;;;;;;;;21.27;27.88;98466.59;5054883;28;934;-75
2022/05/05 13:19:16;;;;;;;;;;;;;;;21.27;27.78;98477.13;5054533;28;847;-75
2022/05/05 13:21:42;;;;;;;;;;;;;;;21.53;27.47;98479.09;5054633;28;988;-75
2022/05/05 13:24:08;;;;;;;;;;;;;;;21.79;27.17;98479.41;5051878;28;1906;-74
2022/05/05 13:26:33;;;;;;;;;;;;;;;21.78;27.29;98484.28;5055118;28;950;-75
2022/05/05 13:29:00;;;;;;;;;;;;;;;21.55;27.54;98481.47;5092266;28;1116;-74
2022/05/05 13:31:25;;;;;;;;;;;;;;;21.41;27.62;98487.44;5092322;28;1110;-75
2022/05/05 13:33:52;;;;;;;;;;;;;;;21.29;28.10;98486.75;5092511;28;927;-75
2022/05/05 13:36:17;;;;;;;;;;;;;;;21.29;27.68;98492.41;5092549;28;926;-75
2022/05/05 13:38:43;;;;;;;;;;;;;;;21.59;27.37;98499.19;5092357;28;987;-75
2022/05/05 13:41:08;;;;;;;;;;;;;;;21.77;27.42;98498.88;5092257;28;1021;-74
2022/05/05 13:43:34;;;;;;;;;;;;;;;21.60;27.24;98495.13;5092574;28;1898;-75
2022/05/05 13:46:01;;;;;;;;;;;;;;;21.46;27.46;98499.06;5092718;28;980;-74
2022/05/05 13:48:26;;;;;;;;;;;;;;;21.21;27.98;98496.63;5092202;28;1127;-75